Surface/Atmospheric History
06/22/2012 08:51  to  6/23/2012 08:51
Change End Date:
To complete the export process:
1) Select all of the data below
2) Copy the data to the clipboard
3) Open a word processor such as Notepad
4) Paste the data into the word processor
5) Save the file

Date/Time (MDT), SfTemp, SubTemp, AirTemp, RH, Dewpoint, AvgWindSpeed, GustWindSpeed, WindDirection, PrecipType, PrecipIntenisity
06/23/2012 08:50, 64.9 , 64, 56, 91 , 53, 2, 3, NW, Yes,
06/23/2012 08:39, 64.3 , 65, 56, 94 , 54, 2, 3, NW, Yes,
06/23/2012 08:30, 63.8 , 65, 55, 95 , 54, 0, 1, W, Yes,
06/23/2012 08:20, 63.2 , 65, 55, 96 , 53, 4, 6, NW, Yes,
06/23/2012 08:17, 62.9 , 65, 54, 96 , 53, 2, 4, SW, Yes,
06/23/2012 08:10, 62 , 65, 54, 96 , 53, 2, 2, NW, Yes,
06/23/2012 08:00, 60.8 , 65, 53, 96 , 52, 1, 1, NW, Yes,
06/23/2012 07:50, 59.9 , 65, 53, 96 , 52, 1, 2, N, Yes,
06/23/2012 07:40, 59.3 , 65, 52, 96 , 51, 2, 4, NW, Yes,
06/23/2012 07:30, 58.9 , 65, 52, 96 , 51, 1, 2, NW, Yes,
06/23/2012 07:21, 58.6 , 65, 51, 96 , 50, 2, 2, SW, Yes,
06/23/2012 07:10, 58 , 65, 51, 96 , 50, 0, 1, S, Yes,
06/23/2012 07:01, 57.3 , 65, 50, 96 , 49, 0, 0, N, Yes,
06/23/2012 06:51, 56.5 , 65, 50, 96 , 49, 0, 0, E, Yes,
06/23/2012 06:41, 56.3 , 65, 50, 96 , 49, 0, 0, SW, Yes,
06/23/2012 06:31, 56 , 65, 50, 96 , 49, 0, 0, NE, Yes,
06/23/2012 06:21, 55.9 , 65, 50, 95 , 49, 1, 2, SE, Yes,
06/23/2012 06:11, 55.9 , 65, 50, 95 , 49, 1, 1, S, Yes,
06/23/2012 06:01, 55.9 , 65, 50, 95 , 49, 0, 0, E, Yes,
06/23/2012 02:53, 60.2 , 66, 56, 85 , 51, 1, 2, SE, Yes,
06/23/2012 02:44, 60.3 , 66, 56, 83 , 51, 2, 2, N, Yes,
06/23/2012 02:43, 60.3 , 66, 56, 83 , 51, 1, 2, W, Yes,
06/23/2012 02:34, 60.8 , 66, 56, 81 , 51, 1, 2, W, Yes,
06/23/2012 02:24, 61.1 , 66, 57, 80 , 51, 0, 1, SW, Yes,
06/23/2012 02:23, 61.1 , 66, 57, 79 , 50, 0, 0, N, Yes,
06/23/2012 02:14, 61.4 , 66, 57, 78 , 50, 1, 1, N, Yes,
06/23/2012 02:04, 61.7 , 66, 58, 77 , 51, 1, 2, SE, Yes,
06/23/2012 01:54, 62 , 66, 58, 75 , 50, 1, 1, N, Yes,
06/23/2012 01:44, 62.5 , 66, 59, 73 , 50, 1, 1, W, Yes,
06/23/2012 01:34, 62.9 , 66, 60, 72 , 51, 0, 0, E, Yes,
06/23/2012 01:24, 63.5 , 66, 60, 70 , 50, 0, 0, SW, Yes,
06/23/2012 01:15, 63.7 , 66, 61, 68 , 50, 2, 3, N, Yes,
06/23/2012 01:13, 63.7 , 66, 61, 68 , 50, 1, 1, SE, Yes,
06/23/2012 01:05, 64.6 , 66, 62, 67 , 50, 1, 1, NE, Yes,
06/23/2012 01:04, 64.8 , 66, 62, 66 , 50, 0, 0, S, Yes,
06/23/2012 01:03, 64.8 , 66, 62, 66 , 50, 0, 1, S, Yes,
06/23/2012 01:02, 64.9 , 66, 62, 66 , 50, 1, 2, SW, Yes,
06/23/2012 00:56, 65.4 , 66, 62, 65 , 50, 0, 0, N, Yes,
06/23/2012 00:54, 65.4 , 66, 62, 65 , 50, 0, 0, S, Yes,
06/23/2012 00:44, 65.5 , 66, 62, 63 , 49, 1, 2, NW, Yes,
06/23/2012 00:36, 65.7 , 66, 62, 64 , 50, 1, 1, N, Yes,
06/23/2012 00:35, 65.7 , 66, 62, 63 , 49, 0, 1, E, Yes,
06/23/2012 00:25, 65.7 , 66, 63, 60 , 48, 2, 2, SE, Yes,
06/23/2012 00:15, 65.7 , 66, 64, 56 , 48, 2, 4, E, Yes,
06/23/2012 00:11, 65.5 , 66, 65, 53 , 48, 1, 2, SE, Yes,
06/23/2012 00:08, 65.5 , 66, 66, 51 , 48, 0, 1, S, Yes,
06/23/2012 00:07, 65.8 , 66, 67, 49 , 47, 2, 3, S, Yes,
06/23/2012 00:05, 65.8 , 66, 67, 49 , 47, 5, 7, S, Yes,
06/23/2012 00:02, 65.7 , 66, 67, 49 , 47, 4, 6, S, Yes,
06/22/2012 23:56, 65.4 , 66, 67, 48 , 47, 5, 6, SE, Yes,
06/22/2012 23:55, 65.2 , 66, 67, 48 , 47, 5, 6, SE, Yes,
06/22/2012 23:54, 64.9 , 66, 67, 48 , 47, 5, 6, S, Yes,
06/22/2012 23:53, 64.9 , 66, 67, 47 , 46, 4, 5, SE, Yes,
06/22/2012 23:50, 65.5 , 66, 68, 47 , 47, 6, 8, S, Yes,
06/22/2012 23:49, 65.5 , 66, 68, 46 , 46, 7, 9, S, Yes,
06/22/2012 23:48, 66.1 , 66, 68, 46 , 46, 7, 10, S, Yes,
06/22/2012 23:47, 66.1 , 66, 68, 46 , 46, 7, 10, S, Yes,
06/22/2012 23:46, 66 , 66, 68, 46 , 46, 7, 11, S, Yes,
06/22/2012 23:45, 66 , 66, 68, 46 , 46, 4, 10, S, Yes,
06/22/2012 23:42, 66.1 , 66, 68, 46 , 46, 7, 9, SE, Yes,
06/22/2012 23:41, 66.1 , 66, 68, 46 , 46, 4, 7, S, Yes,
06/22/2012 23:35, 67.5 , 66, 68, 46 , 46, 6, 8, SE, Yes,
06/22/2012 23:28, 67.5 , 66, 68, 46 , 47, 6, 9, SE, Yes,
06/22/2012 23:25, 67.7 , 65, 68, 46 , 47, 4, 6, S, Yes,
06/22/2012 23:15, 67.8 , 65, 68, 46 , 47, 5, 8, SE, Yes,
06/22/2012 23:06, 67.8 , 65, 68, 47 , 46, 6, 7, S, Yes,
06/22/2012 22:56, 68.1 , 65, 67, 48 , 47, 7, 11, S, Yes,
06/22/2012 22:46, 68.3 , 65, 66, 49 , 47, 3, 5, S, Yes,
06/22/2012 22:36, 68.6 , 65, 66, 50 , 47, 2, 3, SW, Yes,
06/22/2012 22:26, 68.9 , 65, 65, 52 , 47, 3, 4, S, Yes,
06/22/2012 22:16, 69.2 , 65, 67, 48 , 46, 4, 5, S, Yes,
06/22/2012 22:06, 69.4 , 65, 67, 48 , 46, 4, 6, S, Yes,
06/22/2012 21:56, 69.5 , 65, 66, 49 , 46, 5, 6, SE, Yes,
06/22/2012 21:47, 70 , 65, 66, 50 , 47, 2, 3, S, Yes,
06/22/2012 21:44, 70 , 65, 67, 49 , 47, 1, 4, NE, Yes,
06/22/2012 21:37, 70.3 , 65, 68, 44 , 46, 4, 5, S, Yes,
06/22/2012 21:27, 70.6 , 65, 68, 44 , 46, 1, 3, S, Yes,
06/22/2012 21:17, 71.2 , 65, 69, 42 , 45, 7, 9, SE, Yes,
06/22/2012 21:07, 71.7 , 65, 69, 42 , 45, 5, 6, S, Yes,
06/22/2012 20:57, 72.3 , 65, 70, 42 , 45, 0, 1, SW, Yes,
06/22/2012 20:52, 72.6 , 65, 70, 42 , 45, 2, 4, SE, Yes,
06/22/2012 20:47, 73.1 , 65, 70, 42 , 46, 1, 2, S, Yes,
06/22/2012 20:37, 73.8 , 65, 70, 41 , 45, 2, 3, SE, Yes,
06/22/2012 20:27, 74.4 , 65, 70, 42 , 46, 4, 7, S, Yes,
06/22/2012 20:17, 74.9 , 64, 71, 41 , 46, 1, 2, E, Yes,
06/22/2012 20:08, 75.4 , 64, 71, 40 , 45, 4, 6, SW, Yes,
06/22/2012 19:58, 76.1 , 64, 71, 41 , 46, 2, 4, SE, Yes,
06/22/2012 19:48, 77.1 , 64, 72, 40 , 46, 2, 4, N, Yes,
06/22/2012 19:43, 77.4 , 64, 72, 40 , 46, 2, 2, W, Yes,
06/22/2012 19:38, 77.4 , 64, 73, 39 , 46, 4, 6, SW, Yes,
06/22/2012 19:28, 77.3 , 64, 74, 38 , 46, 1, 2, W, Yes,
06/22/2012 19:18, 77.4 , 64, 74, 39 , 48, 2, 6, SW, Yes,
06/22/2012 19:13, 77.7 , 64, 75, 37 , 47, 2, 6, SW, Yes,
06/22/2012 19:08, 78.2 , 64, 75, 38 , 48, 2, 4, N, Yes,
06/22/2012 18:58, 79.1 , 64, 76, 37 , 47, 4, 7, W, Yes,
06/22/2012 18:49, 80.8 , 64, 76, 37 , 47, 3, 4, NW, Yes,
06/22/2012 18:39, 82.3 , 64, 76, 37 , 47, 7, 12, NW, Yes,
06/22/2012 18:36, 82.8 , 64, 76, 38 , 49, 2, 3, W, Yes,
06/22/2012 18:29, 87.1 , 64, 77, 38 , 49, 1, 2, W, Yes,
06/22/2012 18:22, 83.6 , 64, 77, 42 , 52, 1, 2, NE, Yes,
06/22/2012 18:19, 84.7 , 64, 77, 41 , 51, 4, 4, SW, Yes,
06/22/2012 18:10, 87.9 , 64, 76, 44 , 52, 1, 3, W, Yes,
06/22/2012 18:09, 88.6 , 64, 75, 44 , 52, 4, 6, NW, Yes,
06/22/2012 17:59, 89.7 , 64, 75, 44 , 51, 7, 10, NW, Yes,
06/22/2012 17:54, 93.1 , 64, 75, 44 , 51, 11, 12, NW, Yes,
06/22/2012 17:49, 96.5 , 64, 75, 45 , 52, 1, 1, W, Yes,
06/22/2012 17:39, 97.9 , 64, 74, 45 , 51, 8, 12, NW, Yes,
06/22/2012 17:29, 98.2 , 64, 75, 45 , 52, 7, 12, NW, Yes,
06/22/2012 17:20, 98.9 , 64, 74, 46 , 52, 9, 11, NW, Yes,
06/22/2012 17:09, 99.2 , 64, 75, 45 , 52, 7, 9, NW, Yes,
06/22/2012 17:07, 98.5 , 64, 75, 46 , 53, 2, 4, NW, Yes,
06/22/2012 17:00, 97.5 , 64, 74, 46 , 52, 4, 6, NW, Yes,
06/22/2012 16:50, 96.9 , 64, 73, 48 , 52, 7, 10, NW, Yes,
06/22/2012 16:40, 95 , 64, 72, 50 , 53, 7, 10, NW, Yes,
06/22/2012 16:36, 93.3 , 64, 72, 51 , 52, 7, 10, NW, Yes,
06/22/2012 16:30, 88.3 , 64, 72, 51 , 53, 4, 6, NW, Yes,
06/22/2012 16:30, 88.1 , 64, 72, 51 , 53, 4, 7, W, Yes,
06/22/2012 16:20, 85.3 , 64, 70, 54 , 53, 7, 11, NW, Yes,
06/22/2012 16:11, 84.7 , 64, 69, 58 , 53, 3, 4, NW, Yes,
06/22/2012 16:10, 83 , 64, 69, 59 , 54, 4, 6, NW, Yes,
06/22/2012 16:07, 81.4 , 64, 67, 61 , 53, 5, 6, NW, Yes,
06/22/2012 16:06, 81.4 , 64, 67, 62 , 54, 5, 6, NW, Yes,
06/22/2012 16:05, 80.9 , 64, 67, 63 , 54, 4, 9, NE, Yes,
06/22/2012 16:04, 79.8 , 64, 67, 63 , 53, 4, 7, NW, Yes,
06/22/2012 16:03, 78.6 , 64, 66, 64 , 54, 6, 7, NW, Yes,
06/22/2012 16:01, 77.7 , 64, 66, 65 , 54, 4, 7, NW, Yes,
06/22/2012 16:00, 74.6 , 64, 66, 66 , 54, 6, 9, NW, Yes,
06/22/2012 15:51, 71.8 , 63, 65, 74 , 56, 2, 3, NW, Yes,
06/22/2012 15:40, 72.1 , 63, 65, 75 , 57, 1, 1, SE, Yes,
06/22/2012 15:31, 74 , 63, 64, 76 , 57, 1, 2, NE, Yes,
06/22/2012 15:21, 75.4 , 63, 64, 82 , 59, 1, 2, E, Yes,
06/22/2012 15:11, 74.3 , 63, 63, 84 , 58, 1, 2, NE, Yes,
06/22/2012 15:08, 72 , 63, 61, 83 , 56, 2, 3, SE, Yes,
06/22/2012 15:01, 68.3 , 63, 61, 83 , 55, 3, 5, SE, Yes,
06/22/2012 15:00, 68 , 63, 61, 82 , 55, 4, 6, SE, Yes,
06/22/2012 14:59, 67.7 , 63, 61, 82 , 55, 6, 6, SE, Yes,
06/22/2012 14:51, 66.9 , 63, 61, 78 , 54, 2, 3, S, Yes,
06/22/2012 14:46, 66.8 , 63, 61, 75 , 53, 1, 1, E, Yes,
06/22/2012 14:41, 67.5 , 63, 62, 72 , 52, 1, 2, NE, Yes,
06/22/2012 14:39, 67.2 , 63, 62, 71 , 53, 1, 1, NE, Yes,
06/22/2012 14:38, 67.2 , 63, 62, 71 , 53, 1, 2, N, Yes,
06/22/2012 14:32, 68.3 , 63, 62, 68 , 52, 0, 0, NW, Yes,
06/22/2012 14:32, 68.1 , 63, 62, 68 , 52, 0, 0, NW, Yes,
06/22/2012 14:21, 69.1 , 63, 62, 64 , 50, 2, 5, N, Yes,
06/22/2012 14:16, 70 , 63, 63, 63 , 50, 2, 3, NW, Yes,
06/22/2012 14:12, 71.8 , 63, 63, 63 , 50, 2, 3, W, Yes,
06/22/2012 14:02, 72.6 , 63, 63, 62 , 50, 3, 5, NW, Yes,
06/22/2012 13:52, 72.9 , 63, 63, 60 , 49, 5, 6, NW, Yes,
06/22/2012 13:44, 72.1 , 63, 63, 60 , 49, 2, 3, N, Yes,
06/22/2012 13:42, 72.1 , 63, 63, 61 , 50, 6, 10, NW, Yes,
06/22/2012 13:39, 72.8 , 63, 63, 61 , 50, 7, 11, W, Yes,
06/22/2012 13:33, 74 , 63, 64, 62 , 50, 4, 6, W, Yes,
06/22/2012 13:32, 74.1 , 63, 64, 62 , 50, 3, 4, N, Yes,
06/22/2012 13:22, 72.6 , 63, 63, 60 , 49, 7, 9, NW, Yes,
06/22/2012 13:20, 71.1 , 64, 63, 60 , 48, 6, 9, NW, Yes,
06/22/2012 13:13, 71.4 , 64, 63, 58 , 48, 6, 8, NW, Yes,
06/22/2012 13:12, 71.5 , 64, 63, 58 , 48, 8, 10, NW, Yes,
06/22/2012 13:02, 74.8 , 64, 63, 57 , 47, 3, 4, SW, Yes,
06/22/2012 12:53, 74.6 , 64, 63, 56 , 47, 6, 7, NW, Yes,
06/22/2012 12:43, 75.8 , 64, 63, 55 , 47, 3, 5, NW, Yes,
06/22/2012 12:33, 75.5 , 64, 63, 55 , 47, 1, 4, W, Yes,
06/22/2012 12:23, 76.7 , 64, 63, 56 , 47, 1, 1, N, Yes,
06/22/2012 12:13, 74.4 , 64, 62, 57 , 47, 2, 4, SW, Yes,
06/22/2012 12:03, 73.5 , 64, 62, 59 , 47, 3, 5, NW, Yes,
06/22/2012 11:55, 73.4 , 64, 62, 61 , 48, 3, 4, NW, Yes,
06/22/2012 11:53, 73.4 , 64, 62, 61 , 48, 1, 1, NW, Yes,
06/22/2012 11:43, 72.1 , 64, 61, 63 , 48, 2, 3, NW, Yes,
06/22/2012 11:42, 71.8 , 64, 61, 64 , 49, 2, 3, NW, Yes,
06/22/2012 11:34, 69.4 , 64, 60, 64 , 48, 6, 6, NW, Yes,
06/22/2012 11:23, 68.5 , 64, 60, 65 , 48, 4, 5, NW, Yes,
06/22/2012 11:14, 68.8 , 64, 60, 66 , 48, 2, 4, N, Yes,
06/22/2012 11:04, 68 , 64, 60, 67 , 48, 1, 2, NW, Yes,
06/22/2012 10:54, 68 , 64, 59, 66 , 48, 4, 5, NW, Yes,
06/22/2012 10:44, 68 , 64, 60, 67 , 48, 1, 2, NW, Yes,
06/22/2012 10:34, 68.1 , 64, 59, 67 , 48, 4, 5, NW, Yes,
06/22/2012 10:24, 68.8 , 64, 60, 67 , 48, 1, 2, W, Yes,
06/22/2012 10:15, 67.7 , 64, 59, 70 , 49, 1, 2, NW, Yes,
06/22/2012 10:04, 67.7 , 64, 59, 75 , 51, 2, 3, NW, Yes,
06/22/2012 09:55, 67.2 , 64, 59, 77 , 52, 0, 0, N, Yes,
06/22/2012 09:45, 67.4 , 64, 58, 79 , 52, 0, 1, W, Yes,
06/22/2012 09:35, 67.2 , 64, 58, 81 , 52, 0, 1, W, Yes,
06/22/2012 09:25, 67.1 , 64, 58, 84 , 53, 0, 1, W, Yes,
06/22/2012 09:20, 66.8 , 64, 58, 86 , 53, 0, 0, NE, Yes,
06/22/2012 09:15, 66.1 , 64, 57, 86 , 53, 0, 0, NE, Yes,
06/22/2012 09:12, 65.8 , 65, 57, 86 , 53, 0, 0, NE, Yes,
06/22/2012 09:05, 65.2 , 65, 57, 88 , 53, 0, 0, NE, Yes,
Change End Date:
Copyright © 1998-2005 Surface Systems, Inc.
All Rights Reserved
Send comments about the data to:
SCAN Web ® is a registered trademark of Surface Systems, Inc.
SCAN Web Version 5.6